TimeEDT,TemperatureF,Dew PointF,Humidity,Sea Level PressureIn,VisibilityMPH,Wind Direction,Wind SpeedMPH,Gust SpeedMPH,PrecipitationIn,Events,Conditions,WindDirDegrees,DateUTC
12:53 AM,54.0,51.1,90,30.10,10.0,Calm,Calm,-,N/A,,Clear,0,2013-06-05 04:53:00
1:53 AM,52.0,51.1,97,30.10,10.0,Calm,Calm,-,N/A,,Clear,0,2013-06-05 05:53:00
2:53 AM,55.0,53.1,93,30.08,10.0,Calm,Calm,-,N/A,,Clear,0,2013-06-05 06:53:00
3:53 AM,54.0,52.0,93,30.07,10.0,Calm,Calm,-,N/A,,Clear,0,2013-06-05 07:53:00
4:53 AM,53.1,52.0,96,30.08,10.0,Calm,Calm,-,N/A,,Clear,0,2013-06-05 08:53:00
5:53 AM,53.1,52.0,96,30.06,10.0,Calm,Calm,-,N/A,,Clear,0,2013-06-05 09:53:00
6:53 AM,53.1,52.0,96,30.08,10.0,Calm,Calm,-,N/A,,Clear,0,2013-06-05 10:53:00
7:53 AM,59.0,53.1,81,30.06,10.0,ENE,3.5,-,N/A,,Clear,60,2013-06-05 11:53:00
8:53 AM,63.0,53.1,70,30.07,10.0,NE,4.6,-,N/A,,Clear,40,2013-06-05 12:53:00
9:53 AM,68.0,55.0,63,30.05,10.0,NE,5.8,-,N/A,,Clear,50,2013-06-05 13:53:00
10:53 AM,72.0,54.0,53,30.02,10.0,NE,5.8,-,N/A,,Clear,50,2013-06-05 14:53:00
11:53 AM,75.9,55.0,48,30.00,10.0,Variable,3.5,-,N/A,,Clear,0,2013-06-05 15:53:00
12:53 PM,78.1,57.0,48,30.00,10.0,NW,3.5,-,N/A,,Scattered Clouds,310,2013-06-05 16:53:00
1:53 PM,79.0,57.0,47,29.98,10.0,Variable,3.5,-,N/A,,Clear,0,2013-06-05 17:53:00
2:53 PM,81.0,59.0,47,29.96,10.0,Calm,Calm,-,N/A,,Mostly Cloudy,0,2013-06-05 18:53:00
3:53 PM,81.0,60.1,49,29.93,10.0,ESE,4.6,-,N/A,,Partly Cloudy,110,2013-06-05 19:53:00
4:53 PM,82.0,59.0,45,29.91,10.0,East,6.9,-,N/A,,Clear,80,2013-06-05 20:53:00
5:53 PM,80.1,61.0,52,29.89,10.0,Calm,Calm,-,N/A,,Overcast,0,2013-06-05 21:53:00
6:53 PM,77.0,66.9,71,29.87,10.0,Calm,Calm,-,N/A,,Overcast,0,2013-06-05 22:53:00
7:53 PM,73.0,64.0,73,29.88,10.0,Calm,Calm,-,N/A,,Overcast,0,2013-06-05 23:53:00
8:53 PM,70.0,64.0,81,29.87,10.0,Calm,Calm,-,N/A,,Overcast,0,2013-06-06 00:53:00
9:53 PM,69.1,64.0,84,29.88,10.0,South,9.2,-,N/A,,Mostly Cloudy,170,2013-06-06 01:53:00
10:53 PM,69.1,64.0,84,29.89,10.0,Calm,Calm,-,N/A,,Mostly Cloudy,0,2013-06-06 02:53:00
11:53 PM,66.0,64.0,93,29.88,10.0,Calm,Calm,-,N/A,,Scattered Clouds,0,2013-06-06 03:53:00